createdAt,value
2017-09-07T00:00:03.898Z,0
2017-09-07T00:01:04.632Z,0
2017-09-07T00:02:05.763Z,0
2017-09-07T00:03:06.484Z,0
2017-09-07T00:04:07.274Z,0
2017-09-07T00:05:08.050Z,0
2017-09-07T00:06:08.791Z,0
2017-09-07T00:07:09.993Z,0
2017-09-07T00:08:10.742Z,0
2017-09-07T00:09:11.482Z,0
2017-09-07T00:10:12.209Z,0
2017-09-07T00:11:12.997Z,0
2017-09-07T00:12:14.042Z,0
2017-09-07T00:13:14.850Z,0
2017-09-07T00:14:15.607Z,0
2017-09-07T00:15:16.400Z,0
2017-09-07T00:16:17.170Z,0
2017-09-07T00:17:18.324Z,0
2017-09-07T00:18:19.052Z,0
2017-09-07T00:19:19.861Z,0
2017-09-07T00:20:20.602Z,0
2017-09-07T00:21:21.387Z,0
2017-09-07T00:22:22.505Z,0
2017-09-07T00:23:23.233Z,0
2017-09-07T00:24:23.968Z,0
2017-09-07T00:25:24.746Z,0
2017-09-07T00:26:25.542Z,0
2017-09-07T00:27:26.700Z,0
2017-09-07T00:28:27.453Z,0
2017-09-07T00:29:28.219Z,0
2017-09-07T00:30:28.949Z,0
2017-09-07T00:31:29.679Z,0
2017-09-07T00:32:30.730Z,0
2017-09-07T00:33:31.473Z,0
2017-09-07T00:34:32.215Z,0
2017-09-07T00:35:33.020Z,0
2017-09-07T00:36:33.755Z,0
2017-09-07T00:37:34.977Z,0
2017-09-07T00:38:35.720Z,0
2017-09-07T00:39:36.515Z,0
2017-09-07T00:40:37.247Z,0
2017-09-07T00:41:37.982Z,0
2017-09-07T00:42:39.077Z,0
2017-09-07T00:43:39.871Z,0
2017-09-07T00:44:40.601Z,0
2017-09-07T00:45:41.344Z,0
2017-09-07T00:46:42.141Z,0
2017-09-07T00:47:43.275Z,0
2017-09-07T00:48:44.082Z,0
2017-09-07T00:49:44.900Z,0
2017-09-07T00:50:45.639Z,0
2017-09-07T00:51:46.440Z,0
2017-09-07T00:52:47.182Z,0
2017-09-07T00:53:48.114Z,0
2017-09-07T00:54:48.845Z,0
2017-09-07T00:55:49.654Z,0
2017-09-07T00:56:50.407Z,0
2017-09-07T00:57:51.222Z,0
2017-09-07T00:58:51.990Z,0
2017-09-07T00:59:53.070Z,0
2017-09-07T01:00:53.786Z,0
2017-09-07T01:01:54.582Z,0
2017-09-07T01:02:55.393Z,0
2017-09-07T01:03:56.120Z,0
2017-09-07T01:04:57.201Z,0
2017-09-07T01:05:57.990Z,0
2017-09-07T01:06:58.735Z,0
2017-09-07T01:07:59.535Z,0
2017-09-07T01:09:00.263Z,0
2017-09-07T01:10:01.410Z,0
2017-09-07T01:11:02.135Z,0
2017-09-07T01:12:02.864Z,0
2017-09-07T01:13:03.601Z,0
2017-09-07T01:14:04.338Z,0
2017-09-07T01:15:05.542Z,0
2017-09-07T01:16:06.276Z,0
2017-09-07T01:17:07.092Z,0
2017-09-07T01:18:07.897Z,0
2017-09-07T01:19:08.628Z,0
2017-09-07T01:20:09.658Z,0
2017-09-07T01:21:10.460Z,0
2017-09-07T01:22:11.202Z,0
2017-09-07T01:23:11.943Z,0
2017-09-07T01:24:12.679Z,0
2017-09-07T01:25:13.410Z,0
2017-09-07T01:26:14.155Z,0
2017-09-07T01:27:14.884Z,0
2017-09-07T01:28:15.630Z,0
2017-09-07T01:29:16.359Z,0
2017-09-07T01:30:17.393Z,0
2017-09-07T01:31:18.154Z,0
2017-09-07T01:32:18.891Z,0
2017-09-07T01:33:19.621Z,0
2017-09-07T01:34:20.355Z,0
2017-09-07T01:35:21.073Z,0
2017-09-07T01:36:21.817Z,0
2017-09-07T01:37:22.614Z,0
2017-09-07T01:38:23.356Z,0
2017-09-07T01:39:24.165Z,0
2017-09-07T01:40:25.236Z,0
2017-09-07T01:41:25.977Z,0
2017-09-07T01:42:26.781Z,0
2017-09-07T01:43:27.505Z,0
2017-09-07T01:44:28.319Z,0
2017-09-07T01:45:29.333Z,0
2017-09-07T01:46:30.053Z,0
2017-09-07T01:47:30.794Z,0
2017-09-07T01:48:31.533Z,0
2017-09-07T01:49:32.276Z,0
2017-09-07T01:50:33.208Z,0
2017-09-07T01:51:33.982Z,0
2017-09-07T01:52:34.715Z,0
2017-09-07T01:53:35.454Z,0
2017-09-07T01:54:36.185Z,0
2017-09-07T01:55:37.278Z,0
2017-09-07T01:56:38.013Z,0
2017-09-07T01:57:38.759Z,0
2017-09-07T01:58:39.557Z,0
2017-09-07T01:59:40.322Z,0
2017-09-07T02:00:41.376Z,0
2017-09-07T02:01:42.111Z,0
2017-09-07T02:02:42.855Z,0
2017-09-07T02:03:43.587Z,0
2017-09-07T02:04:44.299Z,0
2017-09-07T02:05:45.437Z,0
2017-09-07T02:06:46.174Z,0
2017-09-07T02:07:46.932Z,0
2017-09-07T02:08:47.670Z,0
2017-09-07T02:09:48.480Z,0
2017-09-07T02:10:49.507Z,0
2017-09-07T02:11:50.235Z,0
2017-09-07T02:12:51.040Z,0
2017-09-07T02:13:51.785Z,0
2017-09-07T02:14:52.569Z,0
2017-09-07T02:15:53.651Z,0
2017-09-07T02:16:54.467Z,0
2017-09-07T02:17:56.837Z,0
2017-09-07T02:18:57.457Z,0
2017-09-07T02:19:58.287Z,0
2017-09-07T02:20:59.944Z,0
2017-09-07T02:22:01.770Z,0
2017-09-07T02:23:03.431Z,0
2017-09-07T02:24:04.103Z,0
2017-09-07T02:25:04.849Z,0
2017-09-07T02:26:05.877Z,0
2017-09-07T02:27:06.605Z,0
2017-09-07T02:28:07.396Z,0
2017-09-07T02:29:08.140Z,0
2017-09-07T02:30:08.959Z,0
2017-09-07T02:31:09.686Z,0
2017-09-07T02:32:10.443Z,0
2017-09-07T02:33:11.183Z,0
2017-09-07T02:34:11.910Z,0
2017-09-07T02:35:12.644Z,0
2017-09-07T02:36:13.378Z,0
2017-09-07T02:37:14.482Z,0
2017-09-07T02:38:15.298Z,0
2017-09-07T02:39:16.037Z,0
2017-09-07T02:40:16.767Z,0
2017-09-07T02:41:17.566Z,0
2017-09-07T02:42:18.296Z,0
2017-09-07T02:43:19.238Z,0
2017-09-07T02:44:19.975Z,0
2017-09-07T02:45:20.803Z,0
2017-09-07T02:46:21.543Z,0
2017-09-07T02:47:22.280Z,0
2017-09-07T02:48:23.375Z,0
2017-09-07T02:49:24.168Z,0
2017-09-07T02:50:24.916Z,0
2017-09-07T02:51:25.708Z,0
2017-09-07T02:52:26.501Z,0
2017-09-07T02:53:27.655Z,0
2017-09-07T02:54:28.396Z,0
2017-09-07T02:55:29.169Z,0
2017-09-07T02:56:29.927Z,0
2017-09-07T02:57:30.686Z,0
2017-09-07T02:58:31.774Z,0
2017-09-07T02:59:32.577Z,0
2017-09-07T03:00:33.264Z,0
2017-09-07T03:01:34.003Z,0
2017-09-07T03:02:34.747Z,0
2017-09-07T03:03:35.892Z,0
2017-09-07T03:04:36.623Z,0
2017-09-07T03:05:37.421Z,0
2017-09-07T03:06:38.201Z,0
2017-09-07T03:07:38.936Z,0
2017-09-07T03:08:40.127Z,0
2017-09-07T03:09:40.873Z,0
2017-09-07T03:10:41.614Z,0
2017-09-07T03:11:42.434Z,0
2017-09-07T03:12:43.172Z,0
2017-09-07T03:13:44.247Z,0
2017-09-07T03:14:44.984Z,0
2017-09-07T03:15:45.759Z,0
2017-09-07T03:16:46.553Z,0
2017-09-07T03:17:47.287Z,0
2017-09-07T03:18:48.316Z,0
2017-09-07T03:19:49.135Z,0
2017-09-07T03:20:49.932Z,0
2017-09-07T03:21:50.723Z,0
2017-09-07T03:22:51.463Z,0
2017-09-07T03:23:52.634Z,0
2017-09-07T03:24:53.364Z,0
2017-09-07T03:25:54.094Z,0
2017-09-07T03:26:54.826Z,0
2017-09-07T03:27:55.558Z,0
2017-09-07T03:28:56.692Z,0
2017-09-07T03:29:57.490Z,0
2017-09-07T03:30:58.280Z,0
2017-09-07T03:31:59.084Z,0
2017-09-07T03:32:59.814Z,0
2017-09-07T03:34:00.543Z,0
2017-09-07T03:35:01.281Z,0
2017-09-07T03:36:02.470Z,0
2017-09-07T03:37:03.289Z,0
2017-09-07T03:38:04.085Z,0
2017-09-07T03:39:04.892Z,0
2017-09-07T03:40:05.709Z,0
2017-09-07T03:41:06.874Z,0
2017-09-07T03:42:07.613Z,0
2017-09-07T03:43:08.355Z,0
2017-09-07T03:44:09.124Z,0
2017-09-07T03:45:09.923Z,0
2017-09-07T03:46:10.659Z,0
2017-09-07T03:47:11.403Z,0
2017-09-07T03:48:12.152Z,0
2017-09-07T03:49:12.883Z,0
2017-09-07T03:50:13.614Z,0
2017-09-07T03:51:14.705Z,0
2017-09-07T03:52:15.510Z,0
2017-09-07T03:53:16.250Z,0
2017-09-07T03:54:17.003Z,0
2017-09-07T03:55:17.736Z,0
2017-09-07T03:56:18.774Z,0
2017-09-07T03:57:19.573Z,0
2017-09-07T03:58:20.307Z,0
2017-09-07T03:59:21.039Z,0
2017-09-07T04:00:21.766Z,0
2017-09-07T04:01:22.502Z,0
2017-09-07T04:02:23.233Z,0
2017-09-07T04:03:23.975Z,0
2017-09-07T04:04:24.778Z,0
2017-09-07T04:05:25.814Z,0
2017-09-07T04:06:26.613Z,0
2017-09-07T04:07:27.356Z,0
2017-09-07T04:08:28.162Z,0
2017-09-07T04:09:28.892Z,0
2017-09-07T04:10:29.823Z,0
2017-09-07T04:11:30.569Z,0
2017-09-07T04:12:31.349Z,0
2017-09-07T04:13:32.109Z,0
2017-09-07T04:14:32.817Z,0
2017-09-07T04:15:33.623Z,0
2017-09-07T04:16:34.354Z,0
2017-09-07T04:17:35.482Z,0
2017-09-07T04:18:36.212Z,0
2017-09-07T04:19:36.897Z,0
2017-09-07T04:20:37.623Z,0
2017-09-07T04:21:38.363Z,0
2017-09-07T04:22:39.290Z,0
2017-09-07T04:23:40.041Z,0
2017-09-07T04:24:40.770Z,0
2017-09-07T04:25:41.504Z,0
2017-09-07T04:26:42.245Z,0
2017-09-07T04:27:43.361Z,0
2017-09-07T04:28:44.163Z,0
2017-09-07T04:29:44.907Z,0
2017-09-07T04:30:45.644Z,0
2017-09-07T04:31:46.349Z,0
2017-09-07T04:32:47.483Z,0
2017-09-07T04:33:48.233Z,0
2017-09-07T04:34:48.946Z,0
2017-09-07T04:35:49.694Z,0
2017-09-07T04:36:50.438Z,0
2017-09-07T04:37:51.584Z,5
2017-09-07T04:38:52.323Z,5
2017-09-07T04:39:53.118Z,5
2017-09-07T04:40:53.919Z,5
2017-09-07T04:41:54.705Z,5
2017-09-07T04:42:55.850Z,5
2017-09-07T04:43:56.654Z,5
2017-09-07T04:44:57.447Z,5
2017-09-07T04:45:58.218Z,5
2017-09-07T04:46:59.024Z,5
2017-09-07T04:48:00.245Z,11
2017-09-07T04:49:00.983Z,11
2017-09-07T04:50:01.702Z,11
2017-09-07T04:51:02.516Z,11
2017-09-07T04:52:03.322Z,16
2017-09-07T04:53:04.478Z,16
2017-09-07T04:54:05.254Z,16
2017-09-07T04:55:05.983Z,16
2017-09-07T04:56:06.717Z,22
2017-09-07T04:57:07.463Z,22
2017-09-07T04:58:08.836Z,22
2017-09-07T04:59:09.572Z,28
2017-09-07T05:00:10.355Z,28
2017-09-07T05:01:11.092Z,28
2017-09-07T05:02:11.833Z,33
2017-09-07T05:03:12.885Z,33
2017-09-07T05:04:13.664Z,39
2017-09-07T05:05:14.489Z,39
2017-09-07T05:06:15.230Z,39
2017-09-07T05:07:15.974Z,45
2017-09-07T05:08:17.026Z,50
2017-09-07T05:09:17.810Z,50
2017-09-07T05:10:18.615Z,50
2017-09-07T05:11:19.357Z,50
2017-09-07T05:12:20.157Z,50
2017-09-07T05:13:20.973Z,50
2017-09-07T05:14:21.703Z,45
2017-09-07T05:15:22.442Z,50
2017-09-07T05:16:23.255Z,56
2017-09-07T05:17:24.449Z,61
2017-09-07T05:18:25.193Z,73
2017-09-07T05:19:25.935Z,73
2017-09-07T05:20:26.710Z,78
2017-09-07T05:21:27.471Z,84
2017-09-07T05:22:28.612Z,90
2017-09-07T05:23:29.364Z,101
2017-09-07T05:24:30.110Z,106
2017-09-07T05:25:30.851Z,112
2017-09-07T05:26:31.623Z,123
2017-09-07T05:27:32.612Z,118
2017-09-07T05:28:33.420Z,101
2017-09-07T05:29:34.154Z,95
2017-09-07T05:30:34.895Z,106
2017-09-07T05:31:35.729Z,112
2017-09-07T05:32:36.893Z,140
2017-09-07T05:33:37.625Z,163
2017-09-07T05:34:38.442Z,174
2017-09-07T05:35:39.187Z,168
2017-09-07T05:36:39.923Z,151
2017-09-07T05:37:40.963Z,146
2017-09-07T05:38:41.700Z,135
2017-09-07T05:39:42.444Z,135
2017-09-07T05:40:43.179Z,129
2017-09-07T05:41:44.014Z,123
2017-09-07T05:42:45.502Z,118
2017-09-07T05:43:46.193Z,123
2017-09-07T05:44:46.933Z,140
2017-09-07T05:45:47.715Z,140
2017-09-07T05:46:48.515Z,135
2017-09-07T05:47:49.444Z,135
2017-09-07T05:48:50.176Z,151
2017-09-07T05:49:50.924Z,180
2017-09-07T05:50:51.655Z,219
2017-09-07T05:51:52.404Z,253
2017-09-07T05:52:53.588Z,241
2017-09-07T05:53:54.332Z,202
2017-09-07T05:54:55.073Z,157
2017-09-07T05:55:55.814Z,151
2017-09-07T05:56:56.564Z,157
2017-09-07T05:57:57.603Z,151
2017-09-07T05:58:58.341Z,163
2017-09-07T05:59:59.082Z,163
2017-09-07T06:00:59.871Z,135
2017-09-07T06:02:00.634Z,112
2017-09-07T06:03:01.752Z,118
2017-09-07T06:04:02.499Z,112
2017-09-07T06:05:03.233Z,106
2017-09-07T06:06:03.975Z,123
2017-09-07T06:07:04.789Z,135
2017-09-07T06:08:06.009Z,151
2017-09-07T06:09:06.822Z,157
2017-09-07T06:10:07.553Z,163
2017-09-07T06:11:08.304Z,180
2017-09-07T06:12:09.135Z,196
2017-09-07T06:13:10.342Z,213
2017-09-07T06:14:11.083Z,230
2017-09-07T06:15:11.824Z,225
2017-09-07T06:16:12.553Z,230
2017-09-07T06:17:13.291Z,247
2017-09-07T06:18:14.040Z,264
2017-09-07T06:19:14.784Z,298
2017-09-07T06:20:15.838Z,320
2017-09-07T06:21:16.624Z,382
2017-09-07T06:22:17.373Z,427
2017-09-07T06:23:18.180Z,478
2017-09-07T06:24:18.998Z,450
2017-09-07T06:25:20.094Z,393
2017-09-07T06:26:20.837Z,343
2017-09-07T06:27:21.626Z,309
2017-09-07T06:28:22.434Z,303
2017-09-07T06:29:23.174Z,275
2017-09-07T06:30:23.926Z,225
2017-09-07T06:31:25.068Z,174
2017-09-07T06:32:25.872Z,151
2017-09-07T06:33:26.683Z,157
2017-09-07T06:34:27.414Z,146
2017-09-07T06:35:28.162Z,163
2017-09-07T06:36:29.285Z,163
2017-09-07T06:37:30.024Z,140
2017-09-07T06:38:30.763Z,163
2017-09-07T06:39:31.503Z,219
2017-09-07T06:40:32.247Z,236
2017-09-07T06:41:33.339Z,264
2017-09-07T06:42:34.078Z,247
2017-09-07T06:43:34.826Z,247
2017-09-07T06:44:35.632Z,241
2017-09-07T06:45:36.381Z,247
2017-09-07T06:46:37.594Z,270
2017-09-07T06:47:38.328Z,309
2017-09-07T06:48:39.154Z,298
2017-09-07T06:49:39.963Z,303
2017-09-07T06:50:40.691Z,315
2017-09-07T06:51:41.633Z,371
2017-09-07T06:52:42.391Z,399
2017-09-07T06:53:43.208Z,455
2017-09-07T06:54:43.983Z,545
2017-09-07T06:55:44.735Z,573
2017-09-07T06:56:45.754Z,528
2017-09-07T06:57:46.508Z,511
2017-09-07T06:58:47.284Z,613
2017-09-07T06:59:48.026Z,641
2017-09-07T07:00:48.817Z,635
2017-09-07T07:01:49.878Z,601
2017-09-07T07:02:50.624Z,601
2017-09-07T07:03:51.375Z,601
2017-09-07T07:04:52.205Z,607
2017-09-07T07:05:52.969Z,618
2017-09-07T07:06:53.772Z,652
2017-09-07T07:07:54.833Z,652
2017-09-07T07:08:55.592Z,641
2017-09-07T07:09:56.324Z,646
2017-09-07T07:10:57.069Z,663
2017-09-07T07:11:57.841Z,708
2017-09-07T07:12:58.984Z,759
2017-09-07T07:13:59.783Z,781
2017-09-07T07:15:00.517Z,793
2017-09-07T07:16:01.273Z,776
2017-09-07T07:17:02.064Z,781
2017-09-07T07:18:03.204Z,810
2017-09-07T07:19:03.937Z,793
2017-09-07T07:20:04.735Z,798
2017-09-07T07:21:05.546Z,815
2017-09-07T07:22:06.282Z,810
2017-09-07T07:23:07.452Z,810
2017-09-07T07:24:08.223Z,793
2017-09-07T07:25:08.965Z,776
2017-09-07T07:26:09.705Z,759
2017-09-07T07:27:10.526Z,759
2017-09-07T07:28:11.270Z,714
2017-09-07T07:29:12.023Z,720
2017-09-07T07:30:13.146Z,748
2017-09-07T07:31:13.938Z,742
2017-09-07T07:32:14.760Z,759
2017-09-07T07:33:15.513Z,714
2017-09-07T07:34:16.263Z,776
2017-09-07T07:35:17.407Z,753
2017-09-07T07:36:18.195Z,720
2017-09-07T07:37:18.872Z,697
2017-09-07T07:38:19.624Z,652
2017-09-07T07:39:20.452Z,731
2017-09-07T07:40:21.500Z,770
2017-09-07T07:41:22.247Z,776
2017-09-07T07:42:23.061Z,725
2017-09-07T07:43:23.811Z,703
2017-09-07T07:44:24.533Z,708
2017-09-07T07:45:25.684Z,658
2017-09-07T07:46:26.416Z,658
2017-09-07T07:47:27.222Z,703
2017-09-07T07:48:27.965Z,736
2017-09-07T07:49:28.695Z,905
2017-09-07T07:50:29.743Z,961
2017-09-07T07:51:30.484Z,815
2017-09-07T07:52:31.226Z,911
2017-09-07T07:53:32.030Z,1462
2017-09-07T07:54:32.774Z,1316
2017-09-07T07:55:33.769Z,905
2017-09-07T07:56:34.602Z,793
2017-09-07T07:57:35.385Z,793
2017-09-07T07:58:36.209Z,849
2017-09-07T07:59:36.953Z,967
2017-09-07T08:00:37.687Z,888
2017-09-07T08:01:38.783Z,810
2017-09-07T08:02:39.534Z,860
2017-09-07T08:03:40.274Z,1018
2017-09-07T08:04:41.014Z,1288
2017-09-07T08:05:41.757Z,1248
2017-09-07T08:06:42.540Z,1372
2017-09-07T08:07:43.685Z,1704
2017-09-07T08:08:44.457Z,1260
2017-09-07T08:09:45.203Z,939
2017-09-07T08:10:45.939Z,933
2017-09-07T08:11:46.682Z,967
2017-09-07T08:12:47.821Z,1012
2017-09-07T08:13:48.579Z,1063
2017-09-07T08:14:49.368Z,1057
2017-09-07T08:15:50.114Z,1018
2017-09-07T08:16:50.869Z,933
2017-09-07T08:17:51.680Z,916
2017-09-07T08:18:52.428Z,888
2017-09-07T08:19:53.524Z,821
2017-09-07T08:20:54.269Z,748
2017-09-07T08:21:55.064Z,725
2017-09-07T08:22:55.799Z,725
2017-09-07T08:23:56.553Z,748
2017-09-07T08:24:57.658Z,742
2017-09-07T08:25:58.468Z,731
2017-09-07T08:26:59.214Z,922
2017-09-07T08:27:59.966Z,714
2017-09-07T08:29:00.703Z,686
2017-09-07T08:30:01.795Z,675
2017-09-07T08:31:02.544Z,669
2017-09-07T08:32:03.284Z,759
2017-09-07T08:33:04.024Z,1001
2017-09-07T08:34:04.788Z,720
2017-09-07T08:35:05.784Z,691
2017-09-07T08:36:06.538Z,742
2017-09-07T08:37:07.285Z,720
2017-09-07T08:38:08.083Z,995
2017-09-07T08:39:08.834Z,1771
2017-09-07T08:40:09.574Z,2407
2017-09-07T08:41:10.305Z,2379
2017-09-07T08:42:11.052Z,1890
2017-09-07T08:43:11.868Z,2638
2017-09-07T08:44:12.963Z,2716
2017-09-07T08:45:13.791Z,1985
2017-09-07T08:46:14.519Z,2694
2017-09-07T08:47:15.266Z,1231
2017-09-07T08:48:16.067Z,855
2017-09-07T08:49:17.184Z,753
2017-09-07T08:50:17.971Z,703
2017-09-07T08:51:18.714Z,641
2017-09-07T08:52:19.490Z,652
2017-09-07T08:53:20.235Z,675
2017-09-07T08:54:21.335Z,748
2017-09-07T08:55:22.084Z,815
2017-09-07T08:56:22.836Z,866
2017-09-07T08:57:23.575Z,855
2017-09-07T08:58:24.374Z,731
2017-09-07T08:59:25.115Z,663
2017-09-07T09:00:26.255Z,765
2017-09-07T09:01:26.997Z,838
2017-09-07T09:02:27.736Z,871
2017-09-07T09:03:28.593Z,849
2017-09-07T09:04:29.334Z,613
2017-09-07T09:05:30.274Z,585
2017-09-07T09:06:31.013Z,900
2017-09-07T09:07:31.760Z,1057
2017-09-07T09:08:32.512Z,1237
2017-09-07T09:09:33.264Z,1136
2017-09-07T09:10:34.019Z,956
2017-09-07T09:11:34.835Z,956
2017-09-07T09:12:35.576Z,1231
2017-09-07T09:13:36.318Z,1901
2017-09-07T09:14:37.079Z,1164
2017-09-07T09:15:38.121Z,911
2017-09-07T09:16:38.904Z,1102
2017-09-07T09:17:39.717Z,1473
2017-09-07T09:18:40.541Z,871
2017-09-07T09:19:41.356Z,877
2017-09-07T09:20:42.364Z,742
2017-09-07T09:21:43.104Z,720
2017-09-07T09:22:43.844Z,916
2017-09-07T09:23:44.586Z,1310
2017-09-07T09:24:45.406Z,1991
2017-09-07T09:25:46.564Z,1327
2017-09-07T09:26:47.304Z,1389
2017-09-07T09:27:48.044Z,1670
2017-09-07T09:28:48.788Z,1608
2017-09-07T09:29:49.575Z,1260
2017-09-07T09:30:50.313Z,1333
2017-09-07T09:31:51.262Z,973
2017-09-07T09:32:51.998Z,1136
2017-09-07T09:33:52.799Z,1395
2017-09-07T09:34:53.660Z,945
2017-09-07T09:35:54.396Z,669
2017-09-07T09:36:55.210Z,658
2017-09-07T09:37:56.294Z,613
2017-09-07T09:38:57.041Z,579
2017-09-07T09:39:57.844Z,652
2017-09-07T09:40:58.653Z,810
2017-09-07T09:41:59.400Z,613
2017-09-07T09:43:00.651Z,433
2017-09-07T09:44:01.398Z,742
2017-09-07T09:45:02.143Z,787
2017-09-07T09:46:02.897Z,922
2017-09-07T09:47:03.651Z,742
2017-09-07T09:48:04.783Z,753
2017-09-07T09:49:05.525Z,793
2017-09-07T09:50:06.281Z,1935
2017-09-07T09:51:07.101Z,1957
2017-09-07T09:52:07.848Z,2565
2017-09-07T09:53:08.669Z,1035
2017-09-07T09:54:09.755Z,967
2017-09-07T09:55:10.576Z,1265
2017-09-07T09:56:11.394Z,1130
2017-09-07T09:57:12.180Z,1198
2017-09-07T09:58:12.910Z,1366
2017-09-07T09:59:13.943Z,1569
2017-09-07T10:00:14.674Z,3493
2017-09-07T10:01:15.483Z,3099
2017-09-07T10:02:16.304Z,3420
2017-09-07T10:03:17.114Z,1777
2017-09-07T10:04:18.146Z,1428
2017-09-07T10:05:18.888Z,3279
2017-09-07T10:06:19.704Z,3549
2017-09-07T10:07:20.471Z,3414
2017-09-07T10:08:21.265Z,2193
2017-09-07T10:09:22.463Z,1074
2017-09-07T10:10:23.216Z,2036
2017-09-07T10:11:24.014Z,2081
2017-09-07T10:12:24.763Z,3307
2017-09-07T10:13:25.503Z,1490
2017-09-07T10:14:26.546Z,3110
2017-09-07T10:15:27.364Z,2739
2017-09-07T10:16:28.107Z,2846
2017-09-07T10:17:28.926Z,1980
2017-09-07T10:18:29.674Z,1653
2017-09-07T10:19:30.666Z,2829
2017-09-07T10:21:45.693Z,1125
2017-09-07T10:22:46.473Z,1001
2017-09-07T10:23:48.404Z,815
2017-09-07T10:25:51.114Z,1040
2017-09-07T10:26:51.788Z,877
2017-09-07T10:27:52.536Z,911
2017-09-07T10:28:53.355Z,945
2017-09-07T10:29:54.167Z,967
2017-09-07T10:30:55.267Z,1001
2017-09-07T10:31:56.025Z,1057
2017-09-07T10:32:56.785Z,1080
2017-09-07T10:33:57.627Z,1074
2017-09-07T10:34:58.417Z,1670
2017-09-07T10:35:59.574Z,1884
2017-09-07T10:37:00.273Z,1395
2017-09-07T10:38:01.022Z,1192
2017-09-07T10:39:01.792Z,1524
2017-09-07T10:40:02.602Z,1985
2017-09-07T10:41:03.685Z,3515
2017-09-07T10:42:04.427Z,1490
2017-09-07T10:43:05.256Z,1490
2017-09-07T10:44:06.065Z,1305
2017-09-07T10:45:06.806Z,1991
2017-09-07T10:46:07.604Z,1276
2017-09-07T10:47:08.345Z,3178
2017-09-07T10:48:09.392Z,3268
2017-09-07T10:49:10.139Z,3217
2017-09-07T10:50:10.961Z,3015
2017-09-07T10:51:11.714Z,3093
2017-09-07T10:52:12.464Z,995
2017-09-07T10:53:13.268Z,1119
2017-09-07T10:54:14.298Z,3133
2017-09-07T10:55:15.091Z,2626
2017-09-07T10:56:15.846Z,2610
2017-09-07T10:57:16.817Z,1434
2017-09-07T10:58:17.659Z,2497
2017-09-07T10:59:18.866Z,1299
2017-09-07T11:00:19.693Z,2896
2017-09-07T11:01:20.445Z,3133
2017-09-07T11:02:21.385Z,950
2017-09-07T11:03:22.569Z,3048
2017-09-07T11:04:23.255Z,2649
2017-09-07T11:05:24.094Z,3211
2017-09-07T11:06:25.288Z,3110
2017-09-07T11:07:26.104Z,2660
2017-09-07T11:08:26.853Z,3223
2017-09-07T11:09:27.603Z,3369
2017-09-07T11:10:28.351Z,1816
2017-09-07T11:11:29.446Z,1113
2017-09-07T11:12:30.273Z,1192
2017-09-07T11:13:31.081Z,1923
2017-09-07T11:14:31.903Z,1946
2017-09-07T11:15:32.668Z,2480
2017-09-07T11:16:33.875Z,883
2017-09-07T11:17:34.624Z,967
2017-09-07T11:18:35.371Z,2610
2017-09-07T11:19:36.183Z,2621
2017-09-07T11:20:37.014Z,2728
2017-09-07T11:21:38.224Z,2790
2017-09-07T11:22:38.976Z,759
2017-09-07T11:23:39.796Z,624
2017-09-07T11:24:40.537Z,742
2017-09-07T11:25:41.349Z,2761
2017-09-07T11:26:42.200Z,2835
2017-09-07T11:27:42.981Z,2908
2017-09-07T11:28:44.123Z,2986
2017-09-07T11:29:44.882Z,3009
2017-09-07T11:30:45.638Z,2250
2017-09-07T11:31:46.438Z,1046
2017-09-07T11:32:47.195Z,2835
2017-09-07T11:33:48.015Z,1102
2017-09-07T11:34:49.195Z,2626
2017-09-07T11:35:49.937Z,2790
2017-09-07T11:36:50.772Z,1507
2017-09-07T11:37:51.591Z,2733
2017-09-07T11:38:52.376Z,2806
2017-09-07T11:39:53.544Z,2835
2017-09-07T11:40:54.306Z,2846
2017-09-07T11:41:55.081Z,2694
2017-09-07T11:42:55.824Z,2626
2017-09-07T11:43:56.641Z,2621
2017-09-07T11:44:57.785Z,911
2017-09-07T11:45:58.530Z,658
2017-09-07T11:46:59.265Z,736
2017-09-07T11:48:00.083Z,1153
2017-09-07T11:49:00.839Z,1057
2017-09-07T11:50:01.974Z,1164
2017-09-07T11:51:02.763Z,2874
2017-09-07T11:52:03.529Z,2829
2017-09-07T11:53:04.325Z,1344
2017-09-07T11:54:05.721Z,2840
2017-09-07T11:55:06.814Z,2795
2017-09-07T11:56:07.647Z,624
2017-09-07T11:57:08.384Z,624
2017-09-07T11:58:09.126Z,725
2017-09-07T11:59:09.872Z,1423
2017-09-07T12:00:10.914Z,2930
2017-09-07T12:01:11.671Z,2756
2017-09-07T12:02:12.435Z,1085
2017-09-07T12:03:13.187Z,2677
2017-09-07T12:04:13.933Z,945
2017-09-07T12:05:14.699Z,697
2017-09-07T12:06:15.921Z,2148
2017-09-07T12:07:16.725Z,703
2017-09-07T12:08:17.463Z,843
2017-09-07T12:09:18.210Z,2981
2017-09-07T12:10:19.038Z,3031
2017-09-07T12:11:20.147Z,2289
2017-09-07T12:12:20.896Z,2778
2017-09-07T12:13:21.722Z,2576
2017-09-07T12:14:22.474Z,2323
2017-09-07T12:15:23.217Z,2936
2017-09-07T12:16:24.155Z,1271
2017-09-07T12:17:24.904Z,2913
2017-09-07T12:18:25.649Z,2925
2017-09-07T12:19:26.395Z,2986
2017-09-07T12:20:27.146Z,2801
2017-09-07T12:21:28.322Z,2806
2017-09-07T12:22:29.063Z,933
2017-09-07T12:23:29.813Z,770
2017-09-07T12:24:30.553Z,1243
2017-09-07T12:25:31.309Z,787
2017-09-07T12:26:32.254Z,725
2017-09-07T12:27:32.979Z,720
2017-09-07T12:28:33.734Z,686
2017-09-07T12:29:34.479Z,534
2017-09-07T12:30:35.295Z,562
2017-09-07T12:31:36.039Z,500
2017-09-07T12:32:36.777Z,613
2017-09-07T12:33:37.535Z,658
2017-09-07T12:34:38.687Z,613
2017-09-07T12:35:39.424Z,697
2017-09-07T12:36:40.168Z,933
2017-09-07T12:37:40.981Z,1490
2017-09-07T12:38:41.785Z,1906
2017-09-07T12:39:42.535Z,2385
2017-09-07T12:40:43.624Z,1080
2017-09-07T12:41:44.365Z,1715
2017-09-07T12:42:45.192Z,1231
2017-09-07T12:43:45.983Z,2548
2017-09-07T12:44:46.730Z,1226
2017-09-07T12:45:47.868Z,1923
2017-09-07T12:46:48.694Z,2486
2017-09-07T12:47:49.445Z,2643
2017-09-07T12:48:50.225Z,2565
2017-09-07T12:49:50.925Z,2469
2017-09-07T12:50:52.074Z,1321
2017-09-07T12:51:52.815Z,1029
2017-09-07T12:52:53.617Z,871
2017-09-07T12:53:54.380Z,1265
2017-09-07T12:54:55.187Z,1316
2017-09-07T12:55:56.226Z,1023
2017-09-07T12:56:56.980Z,939
2017-09-07T12:57:57.667Z,888
2017-09-07T12:58:58.413Z,978
2017-09-07T12:59:59.163Z,995
2017-09-07T13:01:00.214Z,894
2017-09-07T13:02:01.036Z,843
2017-09-07T13:03:01.845Z,928
2017-09-07T13:04:02.664Z,939
2017-09-07T13:05:03.421Z,933
2017-09-07T13:06:04.214Z,928
2017-09-07T13:07:04.961Z,928
2017-09-07T13:08:05.739Z,911
2017-09-07T13:09:06.826Z,877
2017-09-07T13:10:07.578Z,810
2017-09-07T13:11:08.313Z,832
2017-09-07T13:12:09.065Z,832
2017-09-07T13:13:09.810Z,793
2017-09-07T13:14:10.914Z,753
2017-09-07T13:15:11.657Z,725
2017-09-07T13:16:12.475Z,714
2017-09-07T13:17:13.265Z,720
2017-09-07T13:18:14.007Z,725
2017-09-07T13:19:15.115Z,753
2017-09-07T13:20:15.844Z,765
2017-09-07T13:21:16.583Z,781
2017-09-07T13:22:17.318Z,798
2017-09-07T13:23:18.064Z,838
2017-09-07T13:24:19.015Z,877
2017-09-07T13:25:19.788Z,928
2017-09-07T13:26:20.534Z,950
2017-09-07T13:27:21.285Z,911
2017-09-07T13:28:22.093Z,860
2017-09-07T13:29:23.190Z,855
2017-09-07T13:30:23.936Z,877
2017-09-07T13:31:24.683Z,911
2017-09-07T13:32:25.469Z,945
2017-09-07T13:33:26.215Z,978
2017-09-07T13:34:27.368Z,956
2017-09-07T13:35:28.146Z,978
2017-09-07T13:36:28.889Z,945
2017-09-07T13:37:29.625Z,956
2017-09-07T13:38:30.369Z,1057
2017-09-07T13:39:31.631Z,1940
2017-09-07T13:40:32.371Z,1957
2017-09-07T13:41:33.100Z,2075
2017-09-07T13:42:33.846Z,2221
2017-09-07T13:43:34.641Z,2148
2017-09-07T13:44:35.446Z,2266
2017-09-07T13:45:36.214Z,990
2017-09-07T13:46:36.957Z,1923
2017-09-07T13:47:38.014Z,1884
2017-09-07T13:48:38.754Z,1951
2017-09-07T13:49:39.510Z,1940
2017-09-07T13:50:40.244Z,1805
2017-09-07T13:51:40.984Z,1839
2017-09-07T13:52:42.085Z,1704
2017-09-07T13:53:42.824Z,1456
2017-09-07T13:54:43.653Z,1186
2017-09-07T13:55:44.393Z,1096
2017-09-07T13:56:45.166Z,691
2017-09-07T13:57:46.225Z,984
2017-09-07T13:58:46.968Z,1856
2017-09-07T13:59:47.706Z,1726
2017-09-07T14:00:48.535Z,1462
2017-09-07T14:01:49.277Z,675
2017-09-07T14:02:50.425Z,596
2017-09-07T14:03:51.297Z,765
2017-09-07T14:04:52.143Z,613
2017-09-07T14:05:52.893Z,534
2017-09-07T14:06:53.633Z,455
2017-09-07T14:07:54.717Z,416
2017-09-07T14:08:55.473Z,489
2017-09-07T14:09:56.284Z,562
2017-09-07T14:10:57.104Z,624
2017-09-07T14:11:57.843Z,635
2017-09-07T14:12:58.787Z,669